Time;durP1;ratioP1;P1;durP2;ratioP2;P2;SDS_P1;SDS_P2;PMS_P1;PMS_P2;Temp;Humidity;BMP_temperature;BMP_pressure;BME280_temperature;BME280_humidity;BME280_pressure;Samples;Min_cycle;Max_cycle;Signal;HPM_P1;HPM_P2
2022/04/19 00:01:50;;;;;;;13.38;6.45;;;5.60;99.90;;;;;;5016466;28;20485;-77
2022/04/19 00:04:18;;;;;;;10.45;6.38;;;5.60;99.90;;;;;;5015795;28;20038;-77
2022/04/19 00:06:44;;;;;;;10.30;6.20;;;5.60;99.90;;;;;;5014502;28;20080;-77
2022/04/19 00:09:10;;;;;;;10.63;6.43;;;5.60;99.90;;;;;;5015892;28;20404;-77
2022/04/19 00:11:36;;;;;;;11.10;6.22;;;5.50;99.90;;;;;;5016211;28;20042;-77
2022/04/19 00:14:02;;;;;;;9.38;6.57;;;5.40;99.90;;;;;;5015545;28;20072;-77
2022/04/19 00:16:27;;;;;;;16.27;7.97;;;5.20;99.90;;;;;;5015949;28;20481;-77
2022/04/19 00:18:53;;;;;;;14.45;8.23;;;5.10;99.90;;;;;;5015558;28;20038;-77
2022/04/19 00:21:19;;;;;;;13.00;7.75;;;5.90;99.90;;;;;;5015600;28;20400;-77
2022/04/19 00:24:06;;;;;;;12.48;6.55;;;5.00;99.90;;;;;;5015495;28;20057;-76
2022/04/19 00:26:32;;;;;;;11.75;7.47;;;4.90;99.90;;;;;;5031101;28;20477;-77
2022/04/19 00:28:57;;;;;;;13.07;7.10;;;4.90;99.90;;;;;;5016006;28;20045;-77
2022/04/19 00:31:23;;;;;;;11.48;7.68;;;4.90;99.90;;;;;;5015283;28;20042;-77
2022/04/19 00:33:48;;;;;;;14.98;7.88;;;4.90;99.90;;;;;;5015677;28;20452;-77
2022/04/19 00:36:14;;;;;;;16.35;9.43;;;4.90;99.90;;;;;;5014855;28;20045;-76
2022/04/19 00:38:39;;;;;;;11.70;7.15;;;4.90;99.90;;;;;;5013324;28;20042;-77
2022/04/19 00:41:05;;;;;;;12.63;7.93;;;4.90;99.90;;;;;;5013876;28;20042;-77
2022/04/19 00:43:30;;;;;;;14.95;7.78;;;4.90;99.90;;;;;;5015206;28;20061;-77
2022/04/19 00:45:56;;;;;;;15.43;7.45;;;4.80;99.90;;;;;;5014495;28;20568;-77
2022/04/19 00:48:22;;;;;;;17.83;7.47;;;4.80;99.90;;;;;;5013753;28;20058;-77
2022/04/19 00:50:50;;;;;;;11.02;7.63;;;4.80;99.90;;;;;;5014832;28;20480;-77
2022/04/19 00:53:17;;;;;;;12.40;6.85;;;4.70;99.90;;;;;;5015016;28;20037;-77
2022/04/19 00:55:44;;;;;;;12.90;6.93;;;4.70;99.90;;;;;;5014835;28;20096;-77
2022/04/19 00:58:11;;;;;;;17.55;7.63;;;4.60;99.90;;;;;;5013272;28;20046;-77
2022/04/19 01:00:37;;;;;;;14.45;7.93;;;4.60;99.90;;;;;;4997271;28;20042;-77
2022/04/19 01:03:02;;;;;;;13.98;6.90;;;4.60;99.90;;;;;;5014748;28;20119;-77
2022/04/19 01:05:28;;;;;;;19.67;8.15;;;4.50;99.90;;;;;;5014809;28;20041;-77
2022/04/19 01:07:54;;;;;;;16.45;7.93;;;4.50;99.90;;;;;;5015590;28;20076;-77
2022/04/19 01:10:19;;;;;;;16.33;8.32;;;4.40;99.90;;;;;;5015150;28;20466;-77
2022/04/19 01:15:29;;;;;;;13.85;8.27;;;4.40;99.90;;;;;;5014817;28;20559;-77
2022/04/19 01:17:57;;;;;;;15.50;7.68;;;4.30;99.90;;;;;;4996587;28;20046;-77
2022/04/19 01:20:22;;;;;;;13.52;7.78;;;4.30;99.90;;;;;;5014325;28;20441;-77
2022/04/19 01:22:49;;;;;;;12.82;7.88;;;4.40;99.90;;;;;;5013441;28;20052;-77
2022/04/19 01:25:18;;;;;;;14.80;7.70;;;5.20;99.90;;;;;;5014820;28;20042;-77
2022/04/19 01:27:44;;;;;;;16.02;8.48;;;4.50;99.90;;;;;;5014603;28;20488;-77
2022/04/19 01:30:10;;;;;;;13.85;8.68;;;4.40;99.90;;;;;;5012738;28;20050;-77
2022/04/19 01:32:37;;;;;;;13.82;8.60;;;4.40;99.90;;;;;;5014153;28;20053;-77
2022/04/19 01:35:16;;;;;;;14.45;9.05;;;4.40;99.90;;;;;;5013946;28;20121;-77
2022/04/19 01:37:49;;;;;;;15.60;8.38;;;4.20;99.90;;;;;;5014100;28;20053;-77
2022/04/19 01:40:18;;;;;;;17.52;9.23;;;4.20;99.90;;;;;;5014598;28;20412;-77
2022/04/19 01:42:48;;;;;;;19.50;9.07;;;4.20;99.90;;;;;;5082771;22;21043;-79
2022/04/19 01:45:23;;;;;;;14.85;8.55;;;4.20;99.90;;;;;;5043938;28;20056;-79
2022/04/19 01:47:49;;;;;;;17.90;9.20;;;4.10;99.90;;;;;;5073605;28;20043;-79
2022/04/19 01:50:16;;;;;;;15.38;9.18;;;4.20;99.90;;;;;;5062541;28;20051;-79
2022/04/19 01:52:43;;;;;;;14.55;9.80;;;4.20;99.90;;;;;;5055947;28;20037;-79
2022/04/19 01:58:09;;;;;;;17.17;10.02;;;4.30;99.90;;;;;;5872825;22;20149;-85
2022/04/19 02:00:35;;;;;;;16.63;7.85;;;4.30;99.90;;;;;;5082241;28;20083;-85
2022/04/19 02:03:03;;;;;;;17.52;8.63;;;4.20;99.90;;;;;;5082338;28;20370;-85
2022/04/19 02:05:28;;;;;;;14.98;9.10;;;4.20;99.90;;;;;;5043162;28;20045;-85
2022/04/19 02:07:54;;;;;;;14.40;8.55;;;4.20;99.90;;;;;;5028850;28;20045;-86
2022/04/19 02:10:20;;;;;;;15.80;8.02;;;4.10;99.90;;;;;;5063766;28;20048;-86
2022/04/19 02:12:51;;;;;;;15.02;8.73;;;4.20;99.90;;;;;;5062217;28;20045;-86
2022/04/19 02:15:20;;;;;;;15.90;9.27;;;4.30;99.90;;;;;;5064559;28;20075;-86
2022/04/19 02:17:48;;;;;;;18.38;10.07;;;4.40;99.90;;;;;;5050067;28;20129;-86
2022/04/19 02:20:16;;;;;;;17.42;8.90;;;4.10;99.90;;;;;;5049736;28;20048;-85
2022/04/19 02:22:42;;;;;;;17.98;9.55;;;4.30;99.90;;;;;;5065337;28;20040;-86
2022/04/19 02:25:09;;;;;;;17.55;9.60;;;4.10;99.90;;;;;;5066959;28;20037;-86
2022/04/19 02:27:35;;;;;;;20.40;10.05;;;4.20;99.90;;;;;;5048918;28;20062;-84
2022/04/19 02:30:05;;;;;;;18.10;10.50;;;5.30;99.90;;;;;;5037144;28;20092;-85
2022/04/19 02:32:31;;;;;;;20.20;10.68;;;5.10;99.90;;;;;;5086939;28;20090;-86
2022/04/19 02:34:57;;;;;;;18.45;10.82;;;4.50;99.90;;;;;;5066783;28;20035;-86
2022/04/19 02:37:23;;;;;;;20.05;10.50;;;4.40;99.90;;;;;;5083546;28;20029;-86
2022/04/19 02:39:50;;;;;;;19.40;11.00;;;4.00;99.90;;;;;;5083481;28;20052;-86
2022/04/19 02:42:16;;;;;;;17.48;10.80;;;4.00;99.90;;;;;;5083523;28;20033;-86
2022/04/19 02:44:45;;;;;;;19.83;11.73;;;4.50;99.90;;;;;;5064304;28;20045;-87
2022/04/19 02:47:11;;;;;;;21.00;11.10;;;3.50;99.90;;;;;;5035870;28;20040;-87
2022/04/19 02:49:38;;;;;;;20.77;12.18;;;4.00;99.90;;;;;;5068814;28;20044;-86
2022/04/19 02:52:04;;;;;;;22.33;11.45;;;3.80;99.90;;;;;;5051802;28;20041;-87
2022/04/19 02:54:30;;;;;;;19.48;10.10;;;3.80;99.90;;;;;;5086880;28;20102;-86
2022/04/19 02:56:57;;;;;;;24.92;10.80;;;3.70;99.90;;;;;;5087175;28;20092;-86
2022/04/19 02:59:22;;;;;;;26.60;12.32;;;3.60;99.90;;;;;;5052006;28;20036;-87
2022/04/19 03:01:48;;;;;;;26.70;12.98;;;3.90;99.90;;;;;;5051369;28;20075;-87
2022/04/19 03:04:14;;;;;;;22.85;12.73;;;3.90;99.90;;;;;;5069547;28;20044;-87
2022/04/19 03:06:40;;;;;;;26.02;13.70;;;4.00;99.90;;;;;;5062081;28;20136;-87
2022/04/19 03:09:06;;;;;;;28.73;13.38;;;4.10;99.90;;;;;;5067465;28;20049;-87
2022/04/19 03:11:32;;;;;;;31.38;15.85;;;4.50;99.90;;;;;;5049497;28;20072;-87
2022/04/19 03:13:58;;;;;;;24.10;14.32;;;4.40;99.90;;;;;;5032931;28;20052;-87
2022/04/19 03:16:24;;;;;;;29.65;14.82;;;3.50;99.90;;;;;;5066767;28;20044;-87
2022/04/19 03:18:50;;;;;;;26.75;13.88;;;4.20;99.90;;;;;;5048802;28;20049;-87
2022/04/19 03:21:15;;;;;;;23.35;13.40;;;5.00;99.90;;;;;;5049111;28;20052;-87
2022/04/19 03:29:11;;;;;;;25.35;13.32;;;3.80;99.90;;;;;;5066917;28;20414;-87
2022/04/19 03:31:38;;;;;;;20.60;11.27;;;3.70;99.90;;;;;;5048563;28;20045;-87
2022/04/19 03:34:05;;;;;;;17.85;11.05;;;3.50;99.90;;;;;;5048332;28;20049;-87
2022/04/19 03:36:31;;;;;;;21.90;12.82;;;3.40;99.90;;;;;;5065606;28;20049;-87
2022/04/19 03:38:58;;;;;;;23.35;12.38;;;3.40;99.90;;;;;;5048020;28;20044;-86
2022/04/19 03:41:25;;;;;;;25.65;12.73;;;3.40;99.90;;;;;;5047203;28;20093;-86
2022/04/19 03:43:53;;;;;;;20.60;12.20;;;3.50;99.90;;;;;;5065877;28;20040;-86
2022/04/19 03:46:19;;;;;;;24.60;12.98;;;3.50;99.90;;;;;;5030530;28;20045;-84
2022/04/19 03:48:45;;;;;;;25.15;13.63;;;3.50;99.90;;;;;;5064282;28;20048;-86
2022/04/19 03:51:11;;;;;;;22.65;13.25;;;3.50;99.90;;;;;;5047662;28;20056;-87
2022/04/19 03:53:38;;;;;;;25.23;12.38;;;3.50;99.90;;;;;;5047687;28;20045;-87
2022/04/19 03:56:04;;;;;;;27.27;13.38;;;3.30;99.90;;;;;;5064617;28;20079;-86
2022/04/19 03:58:32;;;;;;;23.00;13.30;;;3.40;99.90;;;;;;5030472;28;20045;-87
2022/04/19 04:00:59;;;;;;;26.13;11.90;;;3.60;99.90;;;;;;5047888;28;20052;-86
2022/04/19 04:03:25;;;;;;;20.95;12.25;;;3.60;99.90;;;;;;5047953;28;20049;-86
2022/04/19 04:05:50;;;;;;;22.65;12.25;;;3.50;99.90;;;;;;5048702;28;20052;-86
2022/04/19 04:08:16;;;;;;;20.65;11.88;;;3.40;99.90;;;;;;5048161;28;20048;-86
2022/04/19 04:10:42;;;;;;;21.90;12.73;;;3.40;99.90;;;;;;5048169;28;20049;-85
2022/04/19 04:13:07;;;;;;;27.70;11.98;;;3.40;99.90;;;;;;5047118;28;20041;-87
2022/04/19 04:15:34;;;;;;;23.52;12.25;;;3.30;99.90;;;;;;5065736;28;20068;-86
2022/04/19 04:18:00;;;;;;;22.73;12.05;;;3.70;99.90;;;;;;5047493;28;20721;-86
2022/04/19 04:20:25;;;;;;;21.63;12.30;;;3.80;99.90;;;;;;5047172;28;20056;-85
2022/04/19 04:22:51;;;;;;;22.90;11.48;;;3.20;99.90;;;;;;5051543;28;20048;-86
2022/04/19 04:25:18;;;;;;;18.23;10.93;;;3.30;99.90;;;;;;5054550;28;20037;-86
2022/04/19 04:27:44;;;;;;;18.92;10.55;;;3.40;99.90;;;;;;5055365;28;20025;-87
2022/04/19 04:30:10;;;;;;;21.02;11.52;;;3.50;99.90;;;;;;5030193;28;20498;-86
2022/04/19 04:32:39;;;;;;;19.35;10.65;;;3.30;99.90;;;;;;5047435;28;20116;-85
2022/04/19 04:35:06;;;;;;;19.67;11.43;;;3.30;99.90;;;;;;5030390;28;20067;-85
2022/04/19 04:37:31;;;;;;;21.30;10.43;;;3.30;99.90;;;;;;5014044;28;20360;-87
2022/04/19 04:39:57;;;;;;;20.42;10.55;;;3.20;99.90;;;;;;5030578;28;20052;-86
2022/04/19 04:42:22;;;;;;;20.75;11.55;;;3.30;99.90;;;;;;5030165;28;20036;-86
2022/04/19 04:44:48;;;;;;;18.08;10.43;;;3.30;99.90;;;;;;5046811;28;20029;-86
2022/04/19 04:49:59;;;;;;;21.13;12.15;;;3.60;99.90;;;;;;5070261;28;20033;-86
2022/04/19 04:52:24;;;;;;;24.92;12.85;;;3.40;99.90;;;;;;5052072;28;20079;-86
2022/04/19 04:54:50;;;;;;;20.92;11.98;;;3.40;99.90;;;;;;5061864;28;20032;-86
2022/04/19 04:57:18;;;;;;;17.95;10.85;;;4.10;99.90;;;;;;5061728;28;20060;-87
2022/04/19 04:59:45;;;;;;;24.08;12.23;;;3.40;99.90;;;;;;5079606;28;20086;-87
2022/04/19 05:02:11;;;;;;;27.75;11.48;;;4.00;99.90;;;;;;5092026;28;20044;-86
2022/04/19 05:04:39;;;;;;;18.30;10.45;;;3.50;99.90;;;;;;5053108;28;20052;-86
2022/04/19 05:07:05;;;;;;;20.85;11.30;;;3.60;99.90;;;;;;5070092;28;20060;-87
2022/04/19 05:09:31;;;;;;;19.60;10.60;;;4.20;99.90;;;;;;5069255;28;20086;-87
2022/04/19 05:11:58;;;;;;;26.52;12.43;;;4.70;99.90;;;;;;5051455;28;20044;-87
2022/04/19 05:14:23;;;;;;;22.98;11.50;;;3.20;99.90;;;;;;5084110;28;20482;-87
2022/04/19 05:16:49;;;;;;;26.00;12.77;;;3.80;99.90;;;;;;5066198;28;20033;-87
2022/04/19 05:19:15;;;;;;;32.03;13.48;;;3.80;99.90;;;;;;5068940;28;20094;-87
2022/04/19 05:21:41;;;;;;;32.20;11.80;;;4.60;99.90;;;;;;5063013;28;20052;-87
2022/04/19 05:24:08;;;;;;;28.30;11.45;;;4.10;99.90;;;;;;5061487;28;20040;-87
2022/04/19 05:26:35;;;;;;;25.83;12.25;;;4.20;99.90;;;;;;5062592;28;20084;-87
2022/04/19 05:29:00;;;;;;;29.10;12.45;;;4.90;99.90;;;;;;5045108;28;20021;-87
2022/04/19 05:31:26;;;;;;;24.02;12.18;;;4.90;99.90;;;;;;5061364;28;20104;-87
2022/04/19 05:33:51;;;;;;;22.27;10.40;;;5.10;99.90;;;;;;5060659;28;20079;-86
2022/04/19 05:36:17;;;;;;;17.92;10.48;;;5.00;99.90;;;;;;5044006;28;20044;-87
2022/04/19 05:38:43;;;;;;;17.30;9.43;;;5.00;99.90;;;;;;5044929;28;20070;-87
2022/04/19 05:41:10;;;;;;;20.77;10.20;;;5.20;99.90;;;;;;5045640;28;20049;-87
2022/04/19 05:43:36;;;;;;;23.55;10.15;;;5.30;99.90;;;;;;5043407;28;20044;-87
2022/04/19 05:46:01;;;;;;;18.02;9.85;;;5.40;99.90;;;;;;5062693;28;20051;-87
2022/04/19 05:48:27;;;;;;;22.15;9.82;;;5.80;99.90;;;;;;5064688;28;20072;-86
2022/04/19 05:50:53;;;;;;;18.75;10.55;;;5.60;99.90;;;;;;5083461;28;20040;-87
2022/04/19 05:53:19;;;;;;;17.52;9.98;;;5.80;99.90;;;;;;5047038;28;20051;-87
2022/04/19 05:55:45;;;;;;;18.27;9.80;;;6.00;99.90;;;;;;5045622;28;20458;-87
2022/04/19 05:58:11;;;;;;;20.05;9.57;;;6.00;99.90;;;;;;5047087;28;20056;-87
2022/04/19 06:00:36;;;;;;;14.82;8.55;;;6.20;99.90;;;;;;5045711;28;20041;-87
2022/04/19 06:05:50;;;;;;;16.70;9.23;;;5.90;99.90;;;;;;5083900;28;20106;-87
2022/04/19 06:08:16;;;;;;;16.45;9.25;;;6.50;99.90;;;;;;5044714;28;20053;-87
2022/04/19 06:10:42;;;;;;;19.67;9.25;;;6.60;99.90;;;;;;5062666;28;20051;-88
2022/04/19 06:13:08;;;;;;;17.30;7.90;;;6.80;99.90;;;;;;5044979;28;20036;-87
2022/04/19 06:15:34;;;;;;;14.02;8.38;;;7.60;99.90;;;;;;5079698;28;20550;-88
2022/04/19 06:18:00;;;;;;;13.38;7.63;;;8.60;99.90;;;;;;5061802;28;20033;-87
2022/04/19 06:20:25;;;;;;;12.70;6.75;;;9.40;99.90;;;;;;5044327;28;20063;-87
2022/04/19 06:22:51;;;;;;;14.15;7.85;;;10.00;99.90;;;;;;5061278;28;20045;-87
2022/04/19 06:25:17;;;;;;;14.05;7.70;;;11.10;99.90;;;;;;5044426;28;20045;-87
2022/04/19 06:27:43;;;;;;;17.40;7.53;;;11.20;99.90;;;;;;5046821;28;20045;-87
2022/04/19 06:30:09;;;;;;;14.80;7.78;;;11.60;99.90;;;;;;5064160;28;20192;-87
2022/04/19 06:32:35;;;;;;;12.88;7.00;;;12.00;99.90;;;;;;5046737;28;20048;-87
2022/04/19 06:35:01;;;;;;;20.08;7.82;;;12.20;99.90;;;;;;5080381;28;20036;-87
2022/04/19 06:37:26;;;;;;;21.77;8.07;;;12.60;99.90;;;;;;5061074;28;20036;-87
2022/04/19 06:39:52;;;;;;;18.08;6.97;;;12.90;99.90;;;;;;5062097;28;20115;-86
2022/04/19 06:42:19;;;;;;;12.80;7.47;;;13.50;98.30;;;;;;5064198;28;20052;-85
2022/04/19 06:44:44;;;;;;;21.23;7.90;;;13.70;97.40;;;;;;5056664;28;20046;-86
2022/04/19 06:47:10;;;;;;;16.13;7.25;;;14.40;96.00;;;;;;5057722;28;20044;-86
2022/04/19 06:49:37;;;;;;;12.73;7.28;;;14.50;94.30;;;;;;5073552;28;20044;-87
2022/04/19 06:52:06;;;;;;;14.02;6.90;;;15.00;91.80;;;;;;5072251;28;20049;-87
2022/04/19 06:54:32;;;;;;;12.73;7.28;;;14.10;73.00;;;;;;5054183;28;20052;-87
2022/04/19 06:57:00;;;;;;;13.43;7.32;;;14.20;70.00;;;;;;5056602;28;20045;-87
2022/04/19 06:59:25;;;;;;;15.40;7.00;;;14.20;81.30;;;;;;5056899;28;20105;-87
2022/04/19 07:01:52;;;;;;;13.68;7.38;;;13.90;84.50;;;;;;5057413;28;20052;-87
2022/04/19 07:04:19;;;;;;;13.20;6.65;;;14.50;76.00;;;;;;5056107;28;20123;-90
2022/04/19 07:06:45;;;;;;;15.75;7.25;;;15.70;80.40;;;;;;5053756;28;20048;-87
2022/04/19 07:09:10;;;;;;;13.88;7.57;;;15.80;76.30;;;;;;5070380;28;20485;-87
2022/04/19 07:11:37;;;;;;;10.95;6.22;;;16.30;62.00;;;;;;5052739;28;20095;-87
2022/04/19 07:14:05;;;;;;;12.05;6.50;;;16.50;58.30;;;;;;5053568;28;20387;-87
2022/04/19 07:16:32;;;;;;;20.45;6.28;;;17.30;46.50;;;;;;5070903;28;20036;-87
2022/04/19 07:19:01;;;;;;;11.68;5.97;;;17.00;30.00;;;;;;5071424;28;20049;-87
2022/04/19 07:26:59;;;;;;;11.20;5.97;;;16.30;32.70;;;;;;5070828;28;20083;-89
2022/04/19 07:29:25;;;;;;;11.68;5.60;;;16.90;33.50;;;;;;5051529;28;20072;-89
2022/04/19 07:31:51;;;;;;;10.95;5.75;;;17.20;32.80;;;;;;5048548;28;20051;-88
2022/04/19 07:34:19;;;;;;;10.70;5.53;;;16.60;28.60;;;;;;5066087;28;20045;-88
2022/04/19 07:36:50;;;;;;;11.15;6.25;;;17.30;31.10;;;;;;5067504;28;20043;-88
2022/04/19 07:39:17;;;;;;;8.95;5.82;;;16.90;35.30;;;;;;5051358;28;20039;-88
2022/04/19 07:41:47;;;;;;;10.10;5.70;;;16.60;31.40;;;;;;5052072;28;20052;-88
2022/04/19 07:44:15;;;;;;;9.27;5.10;;;16.10;29.90;;;;;;5033459;28;20044;-88
2022/04/19 07:46:50;;;;;;;8.80;5.15;;;17.60;33.20;;;;;;5048501;28;20032;-88
2022/04/19 07:49:18;;;;;;;9.48;5.20;;;17.00;29.10;;;;;;5047356;28;20044;-88
2022/04/19 07:51:44;;;;;;;12.90;5.72;;;16.40;20.20;;;;;;5062374;28;20036;-88
2022/04/19 07:54:10;;;;;;;8.85;4.85;;;17.60;20.60;;;;;;5045405;28;20051;-88
2022/04/19 07:56:35;;;;;;;10.05;6.05;;;17.10;23.10;;;;;;5061400;28;20051;-87
2022/04/19 07:59:01;;;;;;;10.23;5.20;;;16.50;21.40;;;;;;5045592;28;20084;-87
2022/04/19 08:01:29;;;;;;;8.10;4.50;;;17.20;24.00;;;;;;5046044;28;20044;-87
2022/04/19 08:04:01;;;;;;;10.07;5.72;;;17.70;26.30;;;;;;5080198;28;20036;-87
2022/04/19 08:06:32;;;;;;;8.07;4.82;;;18.00;23.60;;;;;;5063642;28;20036;-87
2022/04/19 08:09:00;;;;;;;10.68;4.78;;;18.20;22.20;;;;;;5045733;28;20048;-88
2022/04/19 08:11:27;;;;;;;13.55;5.05;;;18.20;19.70;;;;;;5062004;28;20036;-87
2022/04/19 08:13:53;;;;;;;9.13;5.35;;;18.10;23.20;;;;;;5062477;28;20047;-87
2022/04/19 08:16:19;;;;;;;7.80;4.45;;;17.40;18.70;;;;;;5065156;28;20044;-87
2022/04/19 08:18:44;;;;;;;9.63;4.55;;;17.90;19.30;;;;;;5046039;28;20040;-89
2022/04/19 08:21:11;;;;;;;7.28;3.95;;;18.80;11.90;;;;;;5061977;28;20076;-89
2022/04/19 08:23:37;;;;;;;8.13;4.30;;;18.90;10.00;;;;;;5044509;28;20044;-87
2022/04/19 08:26:06;;;;;;;10.55;4.70;;;18.60;11.60;;;;;;5044938;28;20035;-88
2022/04/19 08:28:33;;;;;;;7.82;3.97;;;18.40;13.40;;;;;;5051996;28;20044;-88
2022/04/19 08:30:59;;;;;;;9.82;3.00;;;19.00;11.20;;;;;;5069585;28;20037;-88
2022/04/19 08:33:25;;;;;;;5.78;3.13;;;19.80;10.50;;;;;;5084122;28;20052;-88
2022/04/19 08:35:50;;;;;;;5.78;3.00;;;18.10;1.20;;;;;;5034014;28;20057;-88
2022/04/19 08:38:16;;;;;;;5.13;2.35;;;19.70;1.00;;;;;;5049885;28;20466;-87
2022/04/19 08:40:42;;;;;;;5.35;2.00;;;19.80;1.30;;;;;;5051692;28;20494;-88
2022/04/19 08:43:08;;;;;;;3.90;2.08;;;19.10;1.00;;;;;;5068910;28;20498;-87
2022/04/19 08:45:33;;;;;;;7.30;2.17;;;19.10;1.00;;;;;;5052049;28;20044;-88
2022/04/19 08:48:01;;;;;;;9.18;1.90;;;18.80;1.00;;;;;;5070195;28;20039;-87
2022/04/19 08:50:28;;;;;;;4.10;1.65;;;18.50;1.00;;;;;;5068608;28;20040;-88
2022/04/19 08:58:23;;;;;;;3.17;1.65;;;18.40;1.00;;;;;;5079092;28;20055;-87
2022/04/19 09:00:48;;;;;;;3.22;1.67;;;18.70;1.00;;;;;;5045997;28;20148;-88
2022/04/19 09:03:14;;;;;;;6.13;1.50;;;18.20;1.00;;;;;;5048352;28;20066;-88
2022/04/19 09:05:51;;;;;;;5.82;1.60;;;17.60;1.00;;;;;;5063809;28;20394;-88
2022/04/19 09:08:17;;;;;;;5.25;1.80;;;18.30;1.00;;;;;;5064321;28;20109;-88
2022/04/19 09:10:42;;;;;;;3.15;1.83;;;17.40;1.00;;;;;;5081263;28;20123;-88
2022/04/19 09:13:10;;;;;;;3.20;1.40;;;16.70;1.00;;;;;;5062710;28;20044;-87
2022/04/19 09:15:38;;;;;;;3.38;1.40;;;16.60;1.00;;;;;;5066983;28;20048;-88
2022/04/19 09:18:05;;;;;;;6.57;1.60;;;16.30;1.00;;;;;;5062196;28;20047;-87
2022/04/19 09:20:31;;;;;;;16.02;1.70;;;17.00;2.50;;;;;;5063455;28;20052;-87
2022/04/19 09:23:11;;;;;;;3.50;1.30;;;17.60;2.00;;;;;;5046738;28;20040;-87
2022/04/19 09:25:38;;;;;;;4.07;1.30;;;18.10;1.00;;;;;;5062376;28;20052;-87
2022/04/19 09:28:18;;;;;;;3.33;1.70;;;17.50;1.00;;;;;;5048283;28;20032;-88
2022/04/19 09:30:45;;;;;;;3.90;1.75;;;16.70;1.30;;;;;;5062468;28;20120;-87
2022/04/19 09:33:21;;;;;;;4.82;1.70;;;17.00;3.20;;;;;;5063175;28;20048;-88
2022/04/19 09:35:50;;;;;;;4.07;1.60;;;17.40;3.70;;;;;;5046722;28;20044;-88
2022/04/19 09:38:19;;;;;;;2.25;1.20;;;17.10;2.10;;;;;;5047537;28;20044;-87
2022/04/19 09:40:48;;;;;;;3.17;1.30;;;17.30;1.20;;;;;;5051178;28;20048;-87
2022/04/19 09:43:21;;;;;;;5.03;1.50;;;17.40;2.50;;;;;;5084247;28;20076;-87
2022/04/19 09:45:55;;;;;;;3.13;1.67;;;16.90;4.30;;;;;;5069962;28;20048;-88
2022/04/19 09:48:26;;;;;;;5.22;1.80;;;17.10;2.90;;;;;;5088957;28;20092;-87
2022/04/19 09:51:07;;;;;;;5.22;1.60;;;17.00;1.20;;;;;;5073399;28;20062;-89
2022/04/19 09:53:59;;;;;;;3.90;2.08;;;16.80;1.20;;;;;;5044138;28;20063;-86
2022/04/19 09:56:34;;;;;;;4.70;1.70;;;16.70;2.30;;;;;;5056145;28;20052;-86
2022/04/19 09:59:02;;;;;;;6.00;1.90;;;16.80;6.10;;;;;;5076582;28;20106;-86
2022/04/19 10:09:31;;;;;;;3.08;1.60;;;16.60;6.60;;;;;;5067301;28;20049;-88
2022/04/19 10:11:58;;;;;;;3.53;1.85;;;16.30;6.20;;;;;;5056642;28;20036;-87
2022/04/19 10:14:24;;;;;;;6.43;2.08;;;16.30;6.40;;;;;;5087645;28;20069;-87
2022/04/19 10:16:50;;;;;;;3.53;1.88;;;16.30;6.90;;;;;;5075637;28;20028;-88
2022/04/19 10:19:19;;;;;;;4.35;1.92;;;17.40;5.60;;;;;;5074045;28;20044;-87
2022/04/19 10:21:46;;;;;;;3.33;2.00;;;16.90;7.80;;;;;;5057417;28;20055;-87
2022/04/19 10:24:13;;;;;;;4.40;1.88;;;16.90;6.40;;;;;;5072848;28;20056;-88
2022/04/19 10:26:46;;;;;;;3.47;1.75;;;16.90;6.70;;;;;;5057456;28;20100;-87
2022/04/19 10:29:25;;;;;;;4.03;1.70;;;15.70;6.40;;;;;;5074522;28;20088;-87
2022/04/19 10:32:03;;;;;;;5.72;1.95;;;16.90;5.10;;;;;;5075543;28;20040;-89
2022/04/19 10:34:32;;;;;;;5.68;1.73;;;17.00;6.90;;;;;;5076008;28;20036;-88
2022/04/19 10:37:19;;;;;;;3.83;2.33;;;17.20;5.20;;;;;;5077520;28;20060;-89
2022/04/19 10:39:52;;;;;;;5.50;2.03;;;17.10;4.60;;;;;;5060720;28;20052;-88
2022/04/19 10:42:37;;;;;;;7.63;1.92;;;17.10;5.80;;;;;;5077192;28;20070;-88
2022/04/19 10:45:12;;;;;;;3.97;2.10;;;17.30;4.40;;;;;;5079127;28;20040;-89
2022/04/19 10:47:53;;;;;;;3.97;1.73;;;17.00;3.90;;;;;;5061616;28;20037;-89
2022/04/19 10:50:30;;;;;;;4.30;1.98;;;16.70;5.60;;;;;;5061100;28;20050;-89
2022/04/19 10:53:02;;;;;;;5.60;2.22;;;16.90;4.10;;;;;;5078826;28;20037;-89
2022/04/19 10:55:35;;;;;;;6.50;2.13;;;16.70;3.60;;;;;;5061652;28;20033;-88
2022/04/19 11:00:57;;;;;;;4.13;2.20;;;16.90;3.50;;;;;;5095215;28;20063;-90
2022/04/19 11:03:26;;;;;;;4.18;2.10;;;16.70;5.00;;;;;;5064101;28;20056;-90
2022/04/19 11:05:56;;;;;;;9.63;2.58;;;16.90;4.40;;;;;;5081651;28;20060;-91
2022/04/19 11:08:36;;;;;;;4.55;2.22;;;16.70;4.20;;;;;;5063282;28;20056;-90
2022/04/19 11:11:02;;;;;;;6.20;3.05;;;16.70;4.30;;;;;;5055334;28;20043;-88
2022/04/19 11:13:35;;;;;;;5.78;2.33;;;17.80;5.90;;;;;;5057947;28;20548;-90
2022/04/19 11:16:09;;;;;;;7.18;2.70;;;17.00;5.50;;;;;;5064548;28;20074;-90
2022/04/19 11:18:57;;;;;;;4.28;2.47;;;17.20;7.10;;;;;;5080982;28;20029;-89
2022/04/19 11:21:46;;;;;;;4.03;2.17;;;18.60;4.40;;;;;;5064016;28;20044;-90
2022/04/19 11:24:11;;;;;;;4.10;2.40;;;18.30;4.30;;;;;;5064824;28;20032;-88
2022/04/19 11:26:43;;;;;;;8.68;3.25;;;18.60;5.10;;;;;;5080068;28;20087;-90
2022/04/19 11:29:09;;;;;;;3.10;1.83;;;18.30;4.10;;;;;;5048639;28;20029;-88
2022/04/19 11:31:57;;;;;;;11.80;2.80;;;19.20;2.50;;;;;;5064905;28;20040;-88
2022/04/19 11:34:23;;;;;;;5.07;2.33;;;19.00;3.50;;;;;;5052494;28;20096;-89
2022/04/19 11:37:00;;;;;;;7.00;2.08;;;20.00;1.50;;;;;;5081724;28;20059;-89
2022/04/19 11:47:59;;;;;;;3.30;1.65;;;18.60;1.00;;;;;;5080807;28;20032;-89
2022/04/19 11:50:30;;;;;;;9.07;2.08;;;18.40;1.00;;;;;;5081299;28;20032;-89
2022/04/19 11:52:56;;;;;;;4.50;2.15;;;19.40;2.20;;;;;;5081522;28;20024;-89
2022/04/19 11:55:25;;;;;;;5.10;2.30;;;19.60;1.00;;;;;;5064388;28;20056;-89
2022/04/19 11:58:05;;;;;;;5.55;2.00;;;17.60;1.00;;;;;;5080973;28;20126;-88
2022/04/19 12:00:31;;;;;;;6.95;2.50;;;19.20;2.30;;;;;;5064857;28;20036;-88
2022/04/19 12:03:06;;;;;;;4.00;1.98;;;19.80;1.00;;;;;;5081575;28;20078;-89
2022/04/19 12:05:31;;;;;;;3.83;2.00;;;18.90;1.00;;;;;;5065032;28;20020;-88
2022/04/19 12:08:00;;;;;;;3.80;1.77;;;19.00;1.00;;;;;;5081806;28;20025;-89
2022/04/19 12:10:30;;;;;;;6.03;1.55;;;19.70;1.00;;;;;;5081399;28;20125;-88
2022/04/19 12:13:05;;;;;;;3.33;1.58;;;19.10;1.00;;;;;;5063959;28;20031;-89
2022/04/19 12:15:43;;;;;;;4.80;1.98;;;19.50;1.00;;;;;;5080307;28;20040;-89
2022/04/19 12:18:30;;;;;;;4.53;2.25;;;19.10;1.00;;;;;;5064071;28;20020;-88
2022/04/19 12:20:55;;;;;;;5.05;2.60;;;20.10;1.00;;;;;;5064188;28;20045;-89
2022/04/19 12:23:22;;;;;;;4.00;1.80;;;19.90;1.00;;;;;;5063555;28;20051;-88
2022/04/19 12:25:59;;;;;;;3.42;2.00;;;20.80;1.00;;;;;;5063343;28;20020;-89
2022/04/19 12:28:50;;;;;;;3.38;1.75;;;20.00;1.00;;;;;;5063690;28;20024;-88
2022/04/19 12:31:46;;;;;;;;;;;;;;;;;;;;;
2022/04/19 12:34:13;;;;;;;5.80;2.13;;;19.70;1.00;;;;;;5078681;28;20029;-88
2022/04/19 12:36:46;;;;;;;3.80;2.35;;;20.20;1.00;;;;;;5080433;28;20059;-89
2022/04/19 12:39:12;;;;;;;4.07;1.60;;;19.60;1.00;;;;;;5080246;28;20024;-88
2022/04/19 12:41:40;;;;;;;5.32;1.88;;;20.40;1.30;;;;;;5095892;28;20051;-88
2022/04/19 12:44:13;;;;;;;11.20;2.50;;;21.20;1.00;;;;;;5075722;28;20074;-88
2022/04/19 12:46:47;;;;;;;7.35;3.05;;;20.20;1.00;;;;;;5061668;28;20041;-89
2022/04/19 12:49:29;;;;;;;2.92;1.75;;;20.10;2.10;;;;;;5076978;28;20482;-89
2022/04/19 12:52:04;;;;;;;8.05;2.30;;;21.00;1.00;;;;;;5060112;28;20099;-89
2022/04/19 12:54:47;;;;;;;5.30;2.47;;;20.10;1.50;;;;;;5056531;28;20036;-89
2022/04/19 12:57:39;;;;;;;6.88;2.47;;;20.70;1.00;;;;;;5070475;28;20530;-89
2022/04/19 13:00:22;;;;;;;5.10;2.53;;;21.20;1.00;;;;;;5044377;28;20117;-89
2022/04/19 13:03:06;;;;;;;3.80;1.90;;;21.40;1.00;;;;;;5053116;28;20037;-90
2022/04/19 13:14:25;;;;;;;5.05;2.13;;;21.10;1.00;;;;;;5072305;28;20164;-89
2022/04/19 13:17:29;;;;;;;;;;;;;;;;;;;;;
2022/04/19 13:19:59;;;;;;;5.28;1.73;;;21.00;1.00;;;;;;5087898;28;20044;-89
2022/04/19 13:22:25;;;;;;;4.82;2.25;;;20.30;1.00;;;;;;5051470;28;20082;-89
2022/04/19 13:24:53;;;;;;;3.63;1.77;;;20.60;1.00;;;;;;5052912;28;20041;-89
2022/04/19 13:27:35;;;;;;;6.18;2.25;;;21.10;1.00;;;;;;5054984;28;20103;-89
2022/04/19 13:30:29;;;;;;;4.00;1.98;;;21.50;1.00;;;;;;5041876;28;20048;-90
2022/04/19 13:33:00;;;;;;;5.55;2.42;;;21.70;1.00;;;;;;5054704;28;20545;-89
2022/04/19 13:35:30;;;;;;;3.67;1.80;;;20.80;1.00;;;;;;5067482;28;20079;-90
2022/04/19 13:40:47;;;;;;;6.70;2.28;;;22.20;1.00;;;;;;5075973;28;20045;-89
2022/04/19 13:43:13;;;;;;;4.25;1.95;;;21.40;1.00;;;;;;5064022;28;20032;-88
2022/04/19 13:45:45;;;;;;;3.78;1.80;;;20.80;1.00;;;;;;5082409;28;20064;-89
2022/04/19 13:48:20;;;;;;;4.45;2.35;;;22.60;1.00;;;;;;5068039;28;20024;-89
2022/04/19 13:50:56;;;;;;;4.72;2.97;;;21.10;1.00;;;;;;5067140;28;20074;-89
2022/04/19 13:53:27;;;;;;;5.43;3.15;;;21.30;1.00;;;;;;5078800;28;20044;-88
2022/04/19 13:56:07;;;;;;;8.85;2.70;;;21.90;1.00;;;;;;5059039;28;20127;-89